Time,TemperatureF,DewpointF,PressureIn,WindDirection,WindDirectionDegrees,WindSpeedMPH,WindSpeedGustMPH,Humidity,HourlyPrecipIn,Conditions,Clouds,dailyrainin,SoftwareType,DateUTC
2013-11-06 00:00:00,12.0,8.0,30.01,West,273,5.0,9.0,84,0.00,,,0.00,,2013-11-06 09:00:00,
2013-11-06 00:43:00,12.0,8.0,30.01,West,273,5.0,9.0,84,0.00,,,0.00,,2013-11-06 09:43:00,
2013-11-06 00:53:00,12.0,8.0,30.01,West,273,5.0,9.0,84,0.00,,,0.00,,2013-11-06 09:53:00,
2013-11-06 01:00:00,11.0,7.0,30.02,West,275,3.0,8.0,83,0.00,,,0.00,,2013-11-06 10:00:00,
2013-11-06 01:42:00,11.0,7.0,30.02,West,275,3.0,8.0,83,0.00,,,0.00,,2013-11-06 10:42:00,
2013-11-06 01:53:00,11.0,7.0,30.02,West,275,3.0,8.0,83,0.00,,,0.00,,2013-11-06 10:53:00,
2013-11-06 02:00:00,11.0,7.0,30.04,WNW,282,3.0,7.0,83,0.00,,,0.00,,2013-11-06 11:00:00,
2013-11-06 02:42:00,11.0,7.0,30.04,WNW,282,3.0,7.0,83,0.00,,,0.00,,2013-11-06 11:42:00,
2013-11-06 02:52:00,11.0,7.0,30.04,WNW,282,3.0,7.0,83,0.00,,,0.00,,2013-11-06 11:52:00,
2013-11-06 03:00:00,10.0,6.0,30.05,WNW,293,3.0,5.0,82,0.00,,,0.00,,2013-11-06 12:00:00,
2013-11-06 03:42:00,10.0,6.0,30.05,WNW,293,3.0,5.0,82,0.00,,,0.00,,2013-11-06 12:42:00,
2013-11-06 03:52:00,10.0,6.0,30.05,WNW,293,3.0,5.0,82,0.00,,,0.00,,2013-11-06 12:52:00,
2013-11-06 04:00:00,11.0,7.0,30.08,WNW,282,2.0,6.0,83,0.00,,,0.00,,2013-11-06 13:00:00,
2013-11-06 04:42:00,11.0,7.0,30.08,WNW,282,2.0,6.0,83,0.00,,,0.00,,2013-11-06 13:42:00,
2013-11-06 04:52:00,11.0,7.0,30.08,WNW,282,2.0,6.0,83,0.00,,,0.00,,2013-11-06 13:52:00,
2013-11-06 05:00:00,11.0,7.0,30.09,West,269,2.0,4.0,83,0.00,,,0.00,,2013-11-06 14:00:00,
2013-11-06 05:42:00,11.0,7.0,30.09,West,269,2.0,4.0,83,0.00,,,0.00,,2013-11-06 14:42:00,
2013-11-06 05:52:00,11.0,7.0,30.09,West,269,2.0,4.0,83,0.00,,,0.00,,2013-11-06 14:52:00,
2013-11-06 06:00:00,9.0,5.0,30.09,WNW,289,1.0,3.0,82,0.00,,,0.00,,2013-11-06 15:00:00,
2013-11-06 06:43:00,9.0,5.0,30.09,WNW,289,1.0,3.0,82,0.00,,,0.00,,2013-11-06 15:43:00,
2013-11-06 06:53:00,9.0,5.0,30.09,WNW,289,1.0,3.0,82,0.00,,,0.00,,2013-11-06 15:53:00,
2013-11-06 07:00:00,9.0,5.0,30.10,NW,324,2.0,3.0,82,0.00,,,0.00,,2013-11-06 16:00:00,
2013-11-06 07:43:00,9.0,5.0,30.10,NW,324,2.0,3.0,82,0.00,,,0.00,,2013-11-06 16:43:00,
2013-11-06 07:53:00,9.0,5.0,30.10,NW,324,2.0,3.0,82,0.00,,,0.00,,2013-11-06 16:53:00,
2013-11-06 08:00:00,8.0,3.0,30.11,ENE,73,2.0,3.0,81,0.00,,,0.00,,2013-11-06 17:00:00,
2013-11-06 08:43:00,8.0,3.0,30.11,ENE,73,2.0,3.0,81,0.00,,,0.00,,2013-11-06 17:43:00,
2013-11-06 08:52:00,8.0,3.0,30.11,ENE,73,2.0,3.0,81,0.00,,,0.00,,2013-11-06 17:52:00,
2013-11-06 09:00:00,9.0,4.0,30.11,NW,319,2.0,3.0,81,0.00,,,0.00,,2013-11-06 18:00:00,
2013-11-06 09:42:00,9.0,4.0,30.11,NW,319,2.0,3.0,81,0.00,,,0.00,,2013-11-06 18:42:00,
2013-11-06 09:52:00,9.0,4.0,30.11,NW,319,2.0,3.0,81,0.00,,,0.00,,2013-11-06 18:52:00,
2013-11-06 10:00:00,10.0,6.0,30.11,WNW,303,1.0,3.0,82,0.00,,,0.00,,2013-11-06 19:00:00,
2013-11-06 10:42:00,10.0,6.0,30.11,WNW,303,1.0,3.0,82,0.00,,,0.00,,2013-11-06 19:42:00,
2013-11-06 10:52:00,10.0,6.0,30.11,WNW,303,1.0,3.0,82,0.00,,,0.00,,2013-11-06 19:52:00,
2013-11-06 11:00:00,13.0,8.0,30.11,NE,34,4.0,8.0,81,0.00,,,0.00,,2013-11-06 20:00:00,
2013-11-06 11:42:00,13.0,8.0,30.11,NE,34,4.0,8.0,81,0.00,,,0.00,,2013-11-06 20:42:00,
2013-11-06 11:52:00,13.0,8.0,30.11,NE,34,4.0,8.0,81,0.00,,,0.00,,2013-11-06 20:52:00,
2013-11-06 12:00:00,13.0,9.0,30.11,NE,46,3.0,10.0,82,0.00,,,0.00,,2013-11-06 21:00:00,
2013-11-06 12:44:00,13.0,9.0,30.11,NE,46,3.0,10.0,82,0.00,,,0.00,,2013-11-06 21:44:00,
2013-11-06 12:54:00,13.0,9.0,30.11,NE,46,3.0,10.0,82,0.00,,,0.00,,2013-11-06 21:54:00,
2013-11-06 13:00:00,14.0,9.0,30.10,NNE,31,4.0,10.0,80,0.00,,,0.00,,2013-11-06 22:00:00,
2013-11-06 13:43:00,14.0,9.0,30.10,NNE,31,4.0,10.0,80,0.00,,,0.00,,2013-11-06 22:43:00,
2013-11-06 13:53:00,14.0,9.0,30.10,NNE,31,4.0,10.0,80,0.00,,,0.00,,2013-11-06 22:53:00,
2013-11-06 14:00:00,12.0,7.0,30.09,NNE,22,5.0,10.0,81,0.00,,,0.00,,2013-11-06 23:00:00,
2013-11-06 14:42:00,12.0,7.0,30.09,NNE,22,5.0,10.0,81,0.00,,,0.00,,2013-11-06 23:42:00,
2013-11-06 14:53:00,12.0,7.0,30.09,NNE,22,5.0,10.0,81,0.00,,,0.00,,2013-11-06 23:53:00,
2013-11-06 15:00:00,10.0,5.0,30.08,NNE,28,5.0,12.0,81,0.00,,,0.00,,2013-11-07 00:00:00,
2013-11-06 15:42:00,10.0,5.0,30.08,NNE,28,5.0,12.0,81,0.00,,,0.00,,2013-11-07 00:42:00,
2013-11-06 15:52:00,10.0,5.0,30.08,NNE,28,5.0,12.0,81,0.00,,,0.00,,2013-11-07 00:52:00,
2013-11-06 16:00:00,9.0,4.0,-100.00,NE,36,7.0,14.0,79,0.00,,,-99.99,,2013-11-07 01:00:00,
2013-11-06 16:42:00,9.0,4.0,30.06,NE,36,7.0,14.0,79,0.00,,,-99.99,,2013-11-07 01:42:00,
2013-11-06 16:52:00,9.0,4.0,-100.00,NE,36,7.0,14.0,79,0.00,,,-99.99,,2013-11-07 01:52:00,
2013-11-06 17:00:00,7.0,2.0,30.04,NE,41,7.0,15.0,78,0.00,,,0.00,,2013-11-07 02:00:00,
2013-11-06 17:53:00,7.0,2.0,30.04,NE,41,7.0,15.0,78,0.00,,,0.00,,2013-11-07 02:53:00,
2013-11-06 18:00:00,6.0,0.0,30.03,NNE,32,9.0,16.0,77,0.00,,,0.00,,2013-11-07 03:00:00,
2013-11-06 18:44:00,6.0,0.0,30.03,NNE,32,9.0,16.0,77,0.00,,,0.00,,2013-11-07 03:44:00,
2013-11-06 18:55:00,6.0,0.0,30.03,NNE,32,9.0,16.0,77,0.00,,,0.00,,2013-11-07 03:55:00,
2013-11-06 19:00:00,7.0,1.0,30.01,ENE,65,9.0,18.0,77,0.00,,,0.00,,2013-11-07 04:00:00,
2013-11-06 19:43:00,7.0,1.0,-100.00,ENE,65,9.0,18.0,77,0.00,,,0.00,,2013-11-07 04:43:00,
2013-11-06 19:53:00,7.0,1.0,30.01,ENE,65,9.0,18.0,77,0.00,,,0.00,,2013-11-07 04:53:00,
2013-11-06 20:00:00,8.0,2.0,29.99,ENE,58,9.0,19.0,77,0.00,,,0.00,,2013-11-07 05:00:00,
2013-11-06 20:44:00,8.0,2.0,-100.00,ENE,58,9.0,19.0,77,0.00,,,0.00,,2013-11-07 05:44:00,
2013-11-06 20:54:00,8.0,2.0,29.99,ENE,58,9.0,19.0,77,0.00,,,0.00,,2013-11-07 05:54:00,
2013-11-06 21:00:00,8.0,2.0,29.97,ENE,69,11.0,21.0,76,0.00,,,0.00,,2013-11-07 06:00:00,
2013-11-06 21:42:00,8.0,2.0,-100.00,ENE,69,11.0,21.0,76,0.00,,,0.00,,2013-11-07 06:42:00,
2013-11-06 21:52:00,8.0,2.0,29.97,ENE,69,11.0,21.0,76,0.00,,,0.00,,2013-11-07 06:52:00,
2013-11-06 22:00:00,5.0,-1.0,29.97,NE,45,10.0,22.0,75,0.00,,,0.00,,2013-11-07 07:00:00,
2013-11-06 22:42:00,5.0,-1.0,29.97,NE,45,10.0,22.0,75,0.00,,,0.00,,2013-11-07 07:42:00,
2013-11-06 22:52:00,5.0,-1.0,29.97,NE,45,10.0,22.0,75,0.00,,,0.00,,2013-11-07 07:52:00,
2013-11-06 23:00:00,7.0,0.0,-100.00,ENE,62,11.0,22.0,74,0.00,,,0.00,,2013-11-07 08:00:00,
2013-11-06 23:42:00,7.0,0.0,-100.00,ENE,62,11.0,22.0,74,0.00,,,0.00,,2013-11-07 08:42:00,
2013-11-06 23:53:00,7.0,0.0,-100.00,ENE,62,11.0,22.0,74,0.00,,,0.00,,2013-11-07 08:53:00,